Logan, UT (84321)

3:11 PM MST on February 14, 2016 (GMT -0700)
Adams Elem School | | Change Station
CLOSE
Current Station
Personal Weather Station
Location: Logan, UT
Elevation: 4596 ft
Nearby Weather Stations

Elev 4596 ft 41.74 °N, 111.82 °W | Updated 22 seconds ago

Snow
Snow
32.9 °F
Feels Like 30 °F
N
3.1
Wind Variable Wind from NNW
Gusts 4.0 mph

Today
High -- | Low -- °F
--% Chance of Precip.
Yesterday
High -- | Low -- °F
Precip. -- in
Pressure 30.23 in
Visibility 0.8 miles
Clouds Few 300 ft
Scattered Clouds 1000 ft
Overcast 1800 ft
Windchill 30 °F
Dew Point 31 °F
Humidity 94%
Rainfall 0.04 in
Snow Depth Not available.
7:24 AM 5:58 PM
Waxing Crescent, 46% visible
SPECI KLGU 142207Z AUTO 02003KT 3/4SM -SN BR FEW003 SCT010 OVC018 01/00 A3023 RMK AO2 P0000 T00060000 $
Pressure 30.23 in
Visibility 0.8 miles
Clouds Few 300 ft
Scattered Clouds 1000 ft
Overcast 1800 ft
Windchill 30 °F
Dew Point 31 °F
Humidity 94%
Rainfall 0.04 in
Snow Depth Not available.
7:24 AM 5:58 PM
Waxing Crescent, 46% visible
SPECI KLGU 142207Z AUTO 02003KT 3/4SM -SN BR FEW003 SCT010 OVC018 01/00 A3023 RMK AO2 P0000 T00060000 $

10-Day Weather Forecast

Almanac

Astronomy

Feb. 14, 2016 Rise Set
Actual Time
Civil Twilight
Nautical Twilight
Astronomical Twilight
Moon
Length of Visible Light
Length of Day
Tomorrow will be .
, % of the Moon is Illuminated

Today's Extremes

State Highs State Lows

Community

WunderPhotos

Upload Photos

1,892,893 photos uploaded!

WunderBlog® & News

Nearby

Air Quality

  Air Quality AQ Index Pollutant
Not available.

Snow Depth

Station Depth Elevation

Earthquake Activity

City Distance Mag. Time & Date
Minimum magnitude displayed is 2.5.

Coastal Water Temperatures

Place Temperature

Stations

Nearby Weather Stations

Station Location Temp. Windchill Dew Point Humidity Wind Precip. Elev Updated Type
                   

Watches & Warnings

There are currently no watches in effect.